Aviation Digital Data Service (ADDS)

Output produced by METARs form (2352 UTC 23 May 2022)
found at http://www.aviationweather.gov/metar/data/
 
LZKZ 232330Z 34005KT CAVOK 10/06 Q1012 NOSIG
TAF LZKZ 232315Z 2400/2500 01005KT CAVOK 
     BECMG 2406/2408 22010KT 9999 SCT038 
     PROB30 
     TEMPO 2410/2418 SHRA SCT035TCU BKN040 
     BECMG 2418/2420 VRB02KT
       
LZIB 232330Z 10004KT 050V120 9999 -SHRA SCT049 16/11 Q1008 TEMPO SHRA
TAF LZIB 232315Z 2400/2500 12008KT 9999 BKN048 
     TEMPO 2400/2407 SHRA SCT035TCU 
     PROB40 
     TEMPO 2400/2407 TSRA SCT030CB BKN040 
     BECMG 2416/2418 05011KT 
     TEMPO 2420/2500 SHRA SCT035TCU 
     PROB30 
     TEMPO 2420/2500 TSRA SCT030CB
       
TAF LZMC 231930Z 2321/2406 14012KT CAVOK 
     BECMG 2322/2324 9999 BKN040 
     TEMPO 2400/2406 15012G24KT 7000 SHRA SCT025 BKN030 
     PROB30 
     TEMPO 2400/2406 VRB15G30KT TSRA SCT025CB BKN030
       
LZPP 232330Z AUTO 12008KT 9999 17/08 Q1008
TAF LZPP 231715Z 2318/2403 15006KT CAVOK 
     TEMPO 2322/2403 14015KT 9999 SCT040
       
TAF LZSL 231930Z 2321/2406 VRB02KT CAVOK 
     BECMG 2321/2323 9999 FEW040 SCT100 
     BECMG 2323/2401 BKN040 
     PROB40 
     TEMPO 2404/2406 -SHRA FEW030TCU BKN035
       
LZTT 232330Z VRB01KT 9999 SCT060 06/05 Q1011
TAF LZTT 232315Z 2400/2500 20004KT 9999 SCT055 
     BECMG 2406/2408 25007KT 
     PROB30 
     TEMPO 2407/2418 SHRA SCT040TCU 
     BECMG 2418/2420 VRB02KT
       
LZZI 232330Z VRB01KT CAVOK 10/07 Q1009
TAF LZZI 232315Z 2400/2409 VRB02KT CAVOK 
     BECMG 2400/2401 13005KT 9999 BKN035 
     TEMPO 2401/2406 -SHRA 
     BECMG 2405/2407 22005KT